ESGJ/JKG METAR and TAF weather

Enter ICAO airport designator
Station Type Date Time Source
ESGJ METAR 2018/07/21 13:20 UTC NOAA

ESGJ 211320Z AUTO 25012KT 220V290 9999 NCD 24/11 Q1009


Station Type Date Time Source
ESGJ Decoded METAR 2018/07/21 13:20 UTC NOAA

Jonkoping Flygplats, Sweden (ESGJ) 57-46N 014-05E 232M
Jul 21, 2018 - 09:20 AM EDT / 2018.07.21 1320 UTC
Wind: from the WSW (250 degrees) at 14 MPH (12 KT) (direction variable):0
Visibility: greater than 7 mile(s):0
Temperature: 75 F (24 C)
Dew Point: 51 F (11 C)
Relative Humidity: 43%
Pressure (altimeter): 29.80 in. Hg (1009 hPa)
ob: ESGJ 211320Z AUTO 25012KT 220V290 9999 NCD 24/11 Q1009
cycle: 13

Station Type Date Time Source
ESGJ TAF 2015/05/01 23:06 UTC NOAA

TAF TAF ESGJ 302359Z 3023/0101 CNL


Example: see airport list